Time;durP1;ratioP1;P1;durP2;ratioP2;P2;SDS_P1;SDS_P2;PMS_P1;PMS_P2;Temp;Humidity;BMP_temperature;BMP_pressure;BME280_temperature;BME280_humidity;BME280_pressure;Samples;Min_cycle;Max_cycle;Signal;HPM_P1;HPM_P2
2022/03/10 00:01:22;;;;;;;19.13;9.20;;;6.80;99.90;;;;;;5036118;28;20502;-77
2022/03/10 00:03:47;;;;;;;18.50;9.07;;;6.80;99.90;;;;;;5036137;28;20029;-75
2022/03/10 00:06:13;;;;;;;16.95;9.35;;;6.70;99.90;;;;;;5018241;28;20032;-76
2022/03/10 00:08:39;;;;;;;27.50;9.77;;;6.70;99.90;;;;;;5040750;28;20029;-77
2022/03/10 00:11:05;;;;;;;22.40;9.85;;;6.70;99.90;;;;;;5047557;28;20042;-76
2022/03/10 00:13:31;;;;;;;25.08;9.65;;;6.80;99.90;;;;;;5041100;28;20028;-78
2022/03/10 00:15:59;;;;;;;21.98;9.93;;;6.70;99.90;;;;;;5018357;28;20021;-77
2022/03/10 00:18:25;;;;;;;20.77;9.65;;;6.70;99.90;;;;;;5036148;28;20025;-76
2022/03/10 00:20:51;;;;;;;19.30;9.20;;;6.70;99.90;;;;;;5018868;28;20032;-77
2022/03/10 00:23:16;;;;;;;17.25;8.75;;;6.70;99.90;;;;;;5036299;28;20124;-76
2022/03/10 00:25:42;;;;;;;25.67;9.93;;;6.70;99.90;;;;;;5036806;28;20069;-77
2022/03/10 00:28:07;;;;;;;19.92;10.13;;;6.70;99.90;;;;;;5036723;28;20033;-76
2022/03/10 00:30:33;;;;;;;22.88;9.88;;;6.70;99.90;;;;;;5037448;28;20033;-76
2022/03/10 00:32:59;;;;;;;20.80;9.48;;;6.60;99.90;;;;;;5018273;28;20056;-77
2022/03/10 00:35:25;;;;;;;20.08;9.88;;;6.50;99.90;;;;;;5018624;28;20105;-75
2022/03/10 00:37:52;;;;;;;23.10;9.82;;;6.50;99.90;;;;;;5035650;28;20239;-76
2022/03/10 00:40:19;;;;;;;19.70;9.82;;;6.50;99.90;;;;;;5035730;28;20026;-75
2022/03/10 00:42:45;;;;;;;21.00;10.13;;;6.50;99.90;;;;;;5035159;28;20479;-75
2022/03/10 00:45:12;;;;;;;21.40;10.32;;;6.50;99.90;;;;;;5035456;28;20061;-75
2022/03/10 00:47:38;;;;;;;23.50;10.98;;;6.50;99.90;;;;;;5035325;28;20033;-76
2022/03/10 00:50:04;;;;;;;20.85;10.60;;;6.40;99.90;;;;;;5035258;28;20022;-77
2022/03/10 00:52:30;;;;;;;20.17;9.95;;;6.40;99.90;;;;;;5036240;28;20021;-78
2022/03/10 00:54:56;;;;;;;20.95;10.00;;;6.40;99.90;;;;;;5036744;28;20482;-78
2022/03/10 00:57:21;;;;;;;19.27;9.35;;;6.30;99.90;;;;;;5037013;28;20087;-76
2022/03/10 00:59:47;;;;;;;19.98;9.95;;;6.30;99.90;;;;;;5037855;28;20043;-77
2022/03/10 01:02:12;;;;;;;21.48;10.43;;;6.30;99.90;;;;;;5040413;28;20356;-76
2022/03/10 01:04:38;;;;;;;24.08;9.95;;;6.20;99.90;;;;;;5037202;28;20392;-77
2022/03/10 01:07:03;;;;;;;28.00;10.65;;;6.20;99.90;;;;;;5036978;28;20037;-78
2022/03/10 01:09:29;;;;;;;17.25;9.60;;;6.20;99.90;;;;;;5038000;28;20021;-76
2022/03/10 01:11:55;;;;;;;21.92;10.68;;;6.20;99.90;;;;;;5037377;28;20029;-76
2022/03/10 01:14:20;;;;;;;20.75;10.15;;;6.20;99.90;;;;;;5036634;28;20087;-77
2022/03/10 01:16:46;;;;;;;21.35;10.27;;;6.10;99.90;;;;;;5018878;28;20103;-78
2022/03/10 01:19:11;;;;;;;23.60;10.02;;;6.00;99.90;;;;;;5037653;28;20029;-78
2022/03/10 01:21:37;;;;;;;20.00;10.23;;;6.00;99.90;;;;;;5020384;28;20048;-76
2022/03/10 01:24:03;;;;;;;21.60;10.77;;;5.90;99.90;;;;;;5036700;28;20117;-77
2022/03/10 01:26:28;;;;;;;23.92;10.95;;;5.90;99.90;;;;;;5036348;28;20099;-76
2022/03/10 01:28:54;;;;;;;20.17;10.38;;;5.80;99.90;;;;;;5036166;28;20426;-77
2022/03/10 01:31:19;;;;;;;21.95;10.57;;;5.80;99.90;;;;;;5017294;28;20061;-75
2022/03/10 01:33:45;;;;;;;21.05;9.82;;;5.70;99.90;;;;;;5035962;28;20049;-76
2022/03/10 01:36:10;;;;;;;19.92;10.32;;;5.70;99.90;;;;;;5034843;28;20041;-76
2022/03/10 01:38:39;;;;;;;24.17;10.90;;;5.70;99.90;;;;;;5034958;28;20490;-77
2022/03/10 01:41:05;;;;;;;23.98;10.68;;;5.60;99.90;;;;;;5035089;28;20389;-78
2022/03/10 01:43:31;;;;;;;22.05;10.65;;;5.60;99.90;;;;;;5017734;28;20037;-78
2022/03/10 01:45:58;;;;;;;18.17;10.13;;;5.60;99.90;;;;;;5034821;28;20029;-75
2022/03/10 01:48:23;;;;;;;19.77;10.45;;;5.60;99.90;;;;;;5034897;28;20030;-76
2022/03/10 01:50:49;;;;;;;24.52;11.05;;;5.60;99.90;;;;;;5035094;28;20040;-75
2022/03/10 01:53:15;;;;;;;22.92;10.32;;;5.60;99.90;;;;;;5034714;28;20467;-76
2022/03/10 01:55:41;;;;;;;22.08;11.23;;;5.60;99.90;;;;;;5034431;28;20057;-76
2022/03/10 01:58:07;;;;;;;22.20;11.13;;;5.60;99.90;;;;;;5018162;28;20382;-76
2022/03/10 02:00:32;;;;;;;28.27;10.70;;;5.50;99.90;;;;;;5021685;28;20065;-75
2022/03/10 02:02:58;;;;;;;24.67;11.18;;;5.50;99.90;;;;;;5021813;28;20030;-75
2022/03/10 02:05:23;;;;;;;22.10;11.32;;;5.50;99.90;;;;;;5021724;28;20021;-77
2022/03/10 02:10:35;;;;;;;24.60;10.93;;;5.40;99.90;;;;;;5037692;28;20052;-76
2022/03/10 02:13:00;;;;;;;34.30;11.52;;;5.40;99.90;;;;;;5038199;28;20029;-77
2022/03/10 02:18:12;;;;;;;23.27;11.60;;;5.30;99.90;;;;;;5039720;28;20091;-75
2022/03/10 02:20:39;;;;;;;22.85;10.57;;;5.20;99.90;;;;;;5042217;28;20033;-76
2022/03/10 02:23:07;;;;;;;21.23;11.80;;;5.20;99.90;;;;;;5022833;28;20033;-76
2022/03/10 02:25:35;;;;;;;24.63;11.68;;;5.10;99.90;;;;;;5037346;28;20037;-77
2022/03/10 02:28:07;;;;;;;25.40;12.32;;;5.10;99.90;;;;;;5075934;28;20383;-77
2022/03/10 02:30:34;;;;;;;22.17;11.45;;;5.20;99.90;;;;;;5075779;28;20389;-77
2022/03/10 02:33:00;;;;;;;21.83;11.50;;;5.10;99.90;;;;;;5069462;28;20037;-76
2022/03/10 02:35:27;;;;;;;21.23;11.77;;;5.10;99.90;;;;;;5071080;28;20389;-75
2022/03/10 02:37:52;;;;;;;21.38;10.68;;;5.10;99.90;;;;;;5070191;28;20100;-76
2022/03/10 02:40:18;;;;;;;24.55;11.93;;;5.10;99.90;;;;;;5070790;28;20067;-75
2022/03/10 02:42:44;;;;;;;20.15;10.63;;;5.10;99.90;;;;;;5070497;28;20035;-76
2022/03/10 02:45:10;;;;;;;24.88;11.80;;;5.10;99.90;;;;;;5070045;28;20166;-75
2022/03/10 02:47:36;;;;;;;27.45;11.10;;;5.10;99.90;;;;;;5069834;28;20470;-78
2022/03/10 02:50:07;;;;;;;22.98;11.23;;;5.10;99.90;;;;;;5070517;28;20017;-77
2022/03/10 02:52:34;;;;;;;23.85;12.45;;;5.10;99.90;;;;;;5073881;28;20367;-77
2022/03/10 02:55:00;;;;;;;22.88;11.40;;;5.10;99.90;;;;;;5072677;28;20075;-77
2022/03/10 02:57:27;;;;;;;20.58;10.82;;;5.00;99.90;;;;;;5071364;28;20430;-76
2022/03/10 02:59:53;;;;;;;23.92;11.80;;;5.10;99.90;;;;;;5069938;28;20052;-75
2022/03/10 03:02:18;;;;;;;20.90;11.57;;;5.10;99.90;;;;;;5069954;28;20106;-75
2022/03/10 03:04:44;;;;;;;20.67;11.98;;;5.10;99.90;;;;;;5068482;28;20039;-76
2022/03/10 03:07:10;;;;;;;22.85;11.80;;;5.10;99.90;;;;;;5069399;28;20265;-77
2022/03/10 03:09:35;;;;;;;29.17;13.27;;;5.10;99.90;;;;;;5069466;28;20025;-77
2022/03/10 03:12:01;;;;;;;21.58;11.88;;;5.00;99.90;;;;;;5069598;28;20385;-77
2022/03/10 03:14:27;;;;;;;22.10;11.68;;;5.00;99.90;;;;;;5069765;28;20028;-75
2022/03/10 03:16:55;;;;;;;22.15;12.40;;;5.00;99.90;;;;;;5069380;28;20389;-77
2022/03/10 03:19:21;;;;;;;22.67;11.50;;;5.00;99.90;;;;;;5069654;28;20029;-75
2022/03/10 03:21:47;;;;;;;21.88;11.82;;;4.90;99.90;;;;;;5069330;28;20029;-74
2022/03/10 03:24:12;;;;;;;25.08;11.52;;;4.90;99.90;;;;;;5069935;28;20029;-77
2022/03/10 03:26:38;;;;;;;23.70;11.32;;;4.90;99.90;;;;;;5068967;28;20371;-77
2022/03/10 03:29:04;;;;;;;23.45;12.50;;;4.90;99.90;;;;;;5069236;28;20122;-75
2022/03/10 03:31:30;;;;;;;23.23;11.80;;;4.90;99.90;;;;;;5069374;28;20023;-76
2022/03/10 03:33:55;;;;;;;24.20;11.77;;;4.80;99.90;;;;;;5068391;28;20107;-77
2022/03/10 03:36:21;;;;;;;21.13;11.57;;;4.70;99.90;;;;;;5067731;28;20051;-77
2022/03/10 03:38:47;;;;;;;25.65;12.40;;;4.70;99.90;;;;;;5059881;28;20021;-77
2022/03/10 03:41:12;;;;;;;22.40;12.25;;;4.70;99.90;;;;;;5057717;28;20375;-76
2022/03/10 03:43:38;;;;;;;28.58;12.23;;;4.70;99.90;;;;;;5060986;28;20033;-77
2022/03/10 03:46:04;;;;;;;27.73;12.27;;;4.60;99.90;;;;;;5055872;28;20094;-76
2022/03/10 03:48:29;;;;;;;21.17;11.82;;;4.60;99.90;;;;;;5056094;28;20515;-77
2022/03/10 03:50:55;;;;;;;22.98;12.68;;;4.60;99.90;;;;;;5056387;28;20025;-76
2022/03/10 03:53:20;;;;;;;23.65;12.27;;;4.60;99.90;;;;;;5056453;28;20108;-77
2022/03/10 03:55:46;;;;;;;25.17;12.25;;;4.60;99.90;;;;;;5056102;28;20017;-77
2022/03/10 03:58:11;;;;;;;21.45;12.68;;;4.50;99.90;;;;;;5056330;28;20025;-75
2022/03/10 04:00:37;;;;;;;24.13;12.73;;;4.50;99.90;;;;;;5056449;28;20085;-77
2022/03/10 04:03:10;;;;;;;27.52;12.70;;;4.40;99.90;;;;;;5056691;28;20025;-76
2022/03/10 04:05:37;;;;;;;28.10;13.50;;;4.40;99.90;;;;;;5056275;28;20438;-77
2022/03/10 04:08:04;;;;;;;25.58;12.98;;;4.40;99.90;;;;;;5056361;28;20039;-76
2022/03/10 04:10:30;;;;;;;25.25;13.23;;;4.40;99.90;;;;;;5056848;28;20131;-76
2022/03/10 04:12:55;;;;;;;24.63;13.38;;;4.40;99.90;;;;;;5057446;28;20051;-77
2022/03/10 04:15:21;;;;;;;24.80;12.43;;;4.40;99.90;;;;;;5057235;28;20025;-78
2022/03/10 04:17:46;;;;;;;21.83;12.52;;;4.30;99.90;;;;;;5057568;28;20031;-77
2022/03/10 04:20:13;;;;;;;25.15;13.05;;;4.30;99.90;;;;;;5056514;28;20032;-77
2022/03/10 04:22:39;;;;;;;29.67;13.70;;;4.20;99.90;;;;;;5055825;28;20032;-75
2022/03/10 04:25:06;;;;;;;27.88;13.50;;;4.20;99.90;;;;;;5055899;28;20029;-76
2022/03/10 04:27:31;;;;;;;22.17;12.35;;;4.20;99.90;;;;;;5055529;28;20485;-77
2022/03/10 04:29:57;;;;;;;25.38;12.75;;;4.20;99.90;;;;;;5056007;28;20072;-78
2022/03/10 04:32:22;;;;;;;27.40;13.18;;;4.20;99.90;;;;;;5056308;28;20017;-77
2022/03/10 04:34:48;;;;;;;30.35;14.35;;;4.10;99.90;;;;;;5051459;28;20497;-76
2022/03/10 04:37:14;;;;;;;35.05;13.98;;;4.20;99.90;;;;;;5055356;28;20383;-75
2022/03/10 04:39:40;;;;;;;24.95;12.95;;;4.20;99.90;;;;;;5055432;28;20443;-76
2022/03/10 04:42:05;;;;;;;28.95;13.77;;;4.20;99.90;;;;;;5055532;28;20024;-77
2022/03/10 04:44:31;;;;;;;29.88;14.20;;;4.20;99.90;;;;;;5056709;28;20393;-75
2022/03/10 04:46:56;;;;;;;36.45;14.88;;;4.20;99.90;;;;;;5057704;28;20029;-75
2022/03/10 04:49:22;;;;;;;25.67;13.60;;;4.20;99.90;;;;;;5056387;28;20029;-75
2022/03/10 04:51:47;;;;;;;29.00;13.93;;;4.20;99.90;;;;;;5056603;28;20096;-77
2022/03/10 04:54:13;;;;;;;30.63;14.35;;;4.10;99.90;;;;;;5056159;28;20021;-76
2022/03/10 04:56:39;;;;;;;27.63;13.55;;;4.10;99.90;;;;;;5058826;28;20443;-76
2022/03/10 04:59:04;;;;;;;26.50;14.23;;;4.10;99.90;;;;;;5059365;28;20016;-77
2022/03/10 05:01:30;;;;;;;32.47;15.57;;;4.10;99.90;;;;;;5058772;28;20029;-77
2022/03/10 05:03:55;;;;;;;27.58;13.75;;;4.10;99.90;;;;;;5061065;28;20367;-78
2022/03/10 05:06:22;;;;;;;35.72;14.75;;;4.00;99.90;;;;;;5062337;28;20032;-77
2022/03/10 05:08:48;;;;;;;33.05;15.10;;;4.00;99.90;;;;;;5071013;28;20036;-78
2022/03/10 05:11:13;;;;;;;30.50;15.30;;;4.10;99.90;;;;;;5075662;28;20005;-78
2022/03/10 05:13:39;;;;;;;28.48;13.77;;;4.10;99.90;;;;;;5077191;28;20045;-78
2022/03/10 05:16:04;;;;;;;30.63;15.65;;;4.10;99.90;;;;;;5075566;28;20043;-78
2022/03/10 05:18:30;;;;;;;30.55;16.02;;;4.00;99.90;;;;;;5077365;28;20088;-76
2022/03/10 05:20:55;;;;;;;29.35;15.18;;;4.00;99.90;;;;;;5076991;28;20021;-78
2022/03/10 05:23:21;;;;;;;28.60;14.88;;;4.00;99.90;;;;;;5077412;28;20096;-77
2022/03/10 05:25:47;;;;;;;36.83;15.13;;;4.00;99.90;;;;;;5076775;28;20082;-77
2022/03/10 05:28:14;;;;;;;30.08;16.13;;;4.00;99.90;;;;;;5077135;28;20043;-78
2022/03/10 05:30:43;;;;;;;29.10;14.27;;;4.00;99.90;;;;;;5075739;28;20036;-77
2022/03/10 05:33:10;;;;;;;34.25;16.27;;;4.00;99.90;;;;;;5073953;28;20028;-76
2022/03/10 05:35:36;;;;;;;31.48;15.90;;;4.00;99.90;;;;;;5074942;28;20029;-77
2022/03/10 05:38:02;;;;;;;30.33;16.13;;;4.00;99.90;;;;;;5074418;28;20039;-76
2022/03/10 05:40:27;;;;;;;28.17;14.77;;;3.90;99.90;;;;;;5073883;28;20104;-76
2022/03/10 05:42:54;;;;;;;31.27;15.38;;;3.90;99.90;;;;;;5075508;28;20032;-76
2022/03/10 05:45:20;;;;;;;33.03;15.98;;;3.90;99.90;;;;;;5076557;28;20206;-77
2022/03/10 05:47:48;;;;;;;36.63;15.95;;;3.90;99.90;;;;;;5070647;28;20029;-77
2022/03/10 05:50:14;;;;;;;37.88;16.13;;;3.90;99.90;;;;;;5065450;28;20070;-78
2022/03/10 05:52:41;;;;;;;33.45;16.27;;;3.90;99.90;;;;;;5073512;28;20028;-76
2022/03/10 05:55:07;;;;;;;30.88;15.40;;;3.90;99.90;;;;;;5076843;28;20013;-77
2022/03/10 05:57:33;;;;;;;32.22;15.52;;;3.90;99.90;;;;;;5075346;28;20029;-76
2022/03/10 05:59:58;;;;;;;30.77;15.52;;;3.80;99.90;;;;;;5075343;28;20044;-77
2022/03/10 06:02:24;;;;;;;32.85;16.08;;;3.80;99.90;;;;;;5071551;28;20013;-76
2022/03/10 06:04:50;;;;;;;30.50;16.05;;;3.80;99.90;;;;;;5072122;28;20182;-78
2022/03/10 06:07:16;;;;;;;31.17;16.73;;;3.80;99.90;;;;;;5076622;28;20051;-79
2022/03/10 06:09:42;;;;;;;35.55;16.58;;;3.90;99.90;;;;;;5077124;28;20048;-79
2022/03/10 06:12:09;;;;;;;31.85;15.35;;;3.90;99.90;;;;;;5071333;28;20033;-78
2022/03/10 06:14:35;;;;;;;32.60;16.85;;;3.80;99.90;;;;;;5065593;28;20020;-77
2022/03/10 06:17:02;;;;;;;36.20;16.65;;;3.80;99.90;;;;;;5075778;28;20005;-75
2022/03/10 06:19:27;;;;;;;31.15;15.73;;;3.90;99.90;;;;;;5071211;28;20029;-77
2022/03/10 06:21:53;;;;;;;33.05;16.63;;;3.90;99.90;;;;;;5066091;28;20032;-79
2022/03/10 06:24:19;;;;;;;33.72;16.63;;;3.90;99.90;;;;;;5073965;28;20033;-78
2022/03/10 06:26:44;;;;;;;41.13;17.80;;;3.90;99.90;;;;;;5071340;28;20033;-79
2022/03/10 06:29:10;;;;;;;33.03;16.52;;;3.90;99.90;;;;;;5073299;28;20037;-79
2022/03/10 06:31:35;;;;;;;41.88;18.02;;;3.90;99.90;;;;;;5071054;28;20036;-76
2022/03/10 06:34:01;;;;;;;39.97;18.33;;;4.00;99.90;;;;;;5058564;28;20033;-76
2022/03/10 06:36:27;;;;;;;36.55;17.75;;;4.10;99.90;;;;;;5065413;28;20020;-76
2022/03/10 06:38:55;;;;;;;36.95;17.38;;;4.00;99.90;;;;;;5059396;28;20446;-77
2022/03/10 06:41:21;;;;;;;35.58;16.27;;;4.00;99.90;;;;;;5053764;28;20104;-77
2022/03/10 06:43:47;;;;;;;35.83;17.17;;;4.10;99.90;;;;;;5053194;28;20083;-78
2022/03/10 06:46:12;;;;;;;30.00;16.17;;;4.10;99.90;;;;;;5054767;28;20555;-74
2022/03/10 06:48:38;;;;;;;39.25;17.23;;;4.20;99.90;;;;;;5055950;28;20046;-76
2022/03/10 06:51:04;;;;;;;34.25;16.65;;;4.20;99.90;;;;;;5053452;28;20025;-73
2022/03/10 06:53:30;;;;;;;49.25;17.25;;;4.20;99.90;;;;;;5053134;28;20021;-74
2022/03/10 06:55:56;;;;;;;36.47;17.42;;;4.20;99.90;;;;;;5053628;28;20025;-76
2022/03/10 06:58:22;;;;;;;36.78;17.05;;;4.20;99.90;;;;;;5053451;28;20470;-75
2022/03/10 07:00:47;;;;;;;37.30;16.98;;;4.30;99.90;;;;;;5054813;28;20393;-76
2022/03/10 07:03:13;;;;;;;35.28;16.48;;;4.30;99.90;;;;;;5055209;28;20052;-77
2022/03/10 07:05:39;;;;;;;34.10;16.52;;;4.40;99.90;;;;;;5061910;28;20021;-79
2022/03/10 07:08:06;;;;;;;35.10;17.52;;;4.50;99.90;;;;;;5059411;28;20049;-75
2022/03/10 07:10:31;;;;;;;37.60;17.45;;;4.50;99.90;;;;;;5061507;28;20017;-76
2022/03/10 07:12:57;;;;;;;36.53;16.77;;;4.60;99.90;;;;;;5056293;28;20078;-75
2022/03/10 07:15:22;;;;;;;34.28;17.08;;;4.70;99.90;;;;;;5057250;28;20025;-76
2022/03/10 07:17:49;;;;;;;42.25;17.23;;;4.80;99.90;;;;;;5060448;28;20028;-81
2022/03/10 07:20:14;;;;;;;41.30;18.20;;;4.90;99.90;;;;;;5060562;28;20024;-78
2022/03/10 07:22:40;;;;;;;35.97;17.15;;;4.90;99.90;;;;;;5062514;28;20033;-79
2022/03/10 07:25:08;;;;;;;31.15;16.33;;;5.00;99.90;;;;;;5062545;28;20025;-78
2022/03/10 07:27:34;;;;;;;42.83;17.40;;;5.10;99.90;;;;;;5054939;28;20177;-77
2022/03/10 07:30:00;;;;;;;35.00;16.70;;;5.10;99.90;;;;;;5056373;28;20024;-80
2022/03/10 07:32:26;;;;;;;35.30;16.67;;;5.20;99.90;;;;;;5060608;28;20028;-77
2022/03/10 07:34:52;;;;;;;31.75;16.90;;;5.20;99.90;;;;;;5061433;28;20048;-77
2022/03/10 07:37:17;;;;;;;34.53;16.67;;;5.30;99.90;;;;;;5069370;28;20059;-79
2022/03/10 07:39:43;;;;;;;41.53;16.80;;;5.40;99.90;;;;;;5070650;28;20028;-76
2022/03/10 07:42:09;;;;;;;31.63;16.48;;;5.40;99.90;;;;;;5065207;28;20025;-78
2022/03/10 07:44:34;;;;;;;36.90;16.58;;;5.50;99.90;;;;;;5057849;28;20020;-76
2022/03/10 07:47:00;;;;;;;33.38;16.73;;;5.50;99.90;;;;;;5061497;28;20029;-75
2022/03/10 07:49:25;;;;;;;32.42;17.40;;;5.60;99.90;;;;;;5061042;28;20025;-75
2022/03/10 07:51:51;;;;;;;31.20;15.65;;;5.70;99.90;;;;;;5058833;28;20029;-77
2022/03/10 07:54:16;;;;;;;28.58;15.73;;;5.80;99.90;;;;;;5060892;28;20390;-79
2022/03/10 07:56:42;;;;;;;33.70;17.50;;;5.90;99.90;;;;;;5060406;28;20080;-78
2022/03/10 07:59:08;;;;;;;35.40;16.50;;;6.00;99.90;;;;;;5064803;28;20024;-76
2022/03/10 08:01:33;;;;;;;39.78;16.45;;;6.20;99.90;;;;;;5062409;28;20032;-75
2022/03/10 08:03:59;;;;;;;37.88;18.70;;;6.20;99.90;;;;;;5057427;28;20029;-75
2022/03/10 08:06:26;;;;;;;34.63;16.73;;;6.40;99.90;;;;;;5055635;28;20075;-75
2022/03/10 08:08:51;;;;;;;35.47;16.48;;;6.50;99.90;;;;;;5056299;28;20021;-77
2022/03/10 08:11:17;;;;;;;36.15;16.90;;;6.60;99.90;;;;;;5055680;28;20109;-74
2022/03/10 08:13:43;;;;;;;31.20;16.05;;;6.80;99.90;;;;;;5056219;28;20025;-75
2022/03/10 08:16:10;;;;;;;35.58;17.08;;;7.00;99.90;;;;;;5059679;28;20025;-77
2022/03/10 08:18:36;;;;;;;37.95;17.80;;;7.10;99.90;;;;;;5063202;28;20021;-75
2022/03/10 08:21:01;;;;;;;30.13;16.13;;;7.30;99.90;;;;;;5056857;28;20111;-76
2022/03/10 08:23:27;;;;;;;38.63;16.20;;;7.30;99.90;;;;;;5057458;28;20114;-73
2022/03/10 08:25:54;;;;;;;34.15;17.75;;;7.40;99.90;;;;;;5055064;28;20021;-75
2022/03/10 08:28:20;;;;;;;41.25;16.20;;;7.50;99.90;;;;;;5054341;28;20142;-76
2022/03/10 08:30:45;;;;;;;33.30;16.50;;;7.60;99.90;;;;;;5057234;28;20016;-77
2022/03/10 08:33:11;;;;;;;31.90;16.48;;;7.70;99.90;;;;;;5055886;28;20082;-76
2022/03/10 08:35:37;;;;;;;34.65;15.25;;;7.80;99.90;;;;;;5056082;28;20033;-77
2022/03/10 08:38:03;;;;;;;35.15;15.65;;;8.20;99.90;;;;;;5056721;28;20041;-74
2022/03/10 08:40:28;;;;;;;31.88;15.00;;;8.60;99.90;;;;;;5055254;28;20051;-76
2022/03/10 08:42:54;;;;;;;30.73;14.90;;;9.30;99.90;;;;;;5056251;28;20029;-75
2022/03/10 08:45:25;;;;;;;33.70;14.35;;;10.40;99.90;;;;;;5059965;28;20032;-79
2022/03/10 08:47:51;;;;;;;25.65;13.40;;;11.20;99.90;;;;;;5060666;28;20028;-78
2022/03/10 08:50:17;;;;;;;35.72;16.90;;;12.10;99.90;;;;;;5059858;28;20029;-79
2022/03/10 08:52:43;;;;;;;25.98;13.93;;;12.80;98.50;;;;;;5059982;28;20039;-76
2022/03/10 08:55:10;;;;;;;32.58;17.85;;;13.70;94.70;;;;;;5056859;28;20374;-74
2022/03/10 08:57:36;;;;;;;27.30;14.23;;;14.10;92.10;;;;;;5061802;28;20025;-77
2022/03/10 09:00:04;;;;;;;28.73;14.00;;;14.70;90.10;;;;;;5065140;28;20075;-75
2022/03/10 09:02:30;;;;;;;23.63;12.52;;;;;;;;;;5066363;28;20048;-74
2022/03/10 09:04:56;;;;;;;25.05;12.52;;;;;;;;;;5057134;28;20025;-74
2022/03/10 09:07:22;;;;;;;21.88;12.80;;;;;;;;;;5056310;28;20025;-74
2022/03/10 09:09:48;;;;;;;31.67;13.43;;;;;;;;;;5054562;28;20025;-75
2022/03/10 09:12:14;;;;;;;27.50;12.50;;;;;;;;;;5056527;28;20029;-76
2022/03/10 09:14:40;;;;;;;24.25;11.80;;;15.10;85.10;;;;;;5056652;28;20021;-73
2022/03/10 09:17:05;;;;;;;22.70;11.02;;;17.90;65.50;;;;;;5054089;28;20472;-75
2022/03/10 09:19:31;;;;;;;27.88;12.45;;;18.20;61.20;;;;;;5056549;28;20446;-74
2022/03/10 09:21:58;;;;;;;29.25;12.70;;;18.30;60.00;;;;;;5055308;28;20486;-75
2022/03/10 09:24:24;;;;;;;21.25;12.00;;;18.40;58.70;;;;;;5058847;28;20025;-76
2022/03/10 09:26:50;;;;;;;25.42;11.70;;;18.40;58.10;;;;;;5057781;28;20093;-77
2022/03/10 09:29:15;;;;;;;24.17;11.90;;;18.30;57.60;;;;;;5058236;28;20077;-77
2022/03/10 09:31:41;;;;;;;20.95;11.57;;;18.80;57.00;;;;;;5057149;28;20484;-74
2022/03/10 09:34:07;;;;;;;25.40;11.27;;;19.10;55.90;;;;;;5054823;28;20032;-76
2022/03/10 09:36:33;;;;;;;24.38;11.70;;;19.30;54.70;;;;;;5054621;28;20044;-76
2022/03/10 09:38:58;;;;;;;20.60;10.85;;;19.00;54.70;;;;;;5055181;28;20017;-75
2022/03/10 09:41:25;;;;;;;29.92;11.82;;;19.50;53.80;;;;;;5056398;28;20052;-76
2022/03/10 09:43:50;;;;;;;20.23;11.48;;;19.50;53.10;;;;;;5054467;28;20036;-74
2022/03/10 09:46:16;;;;;;;24.10;10.88;;;19.50;52.80;;;;;;5052929;28;20025;-77
2022/03/10 09:48:42;;;;;;;20.02;10.80;;;19.70;52.40;;;;;;5052586;28;20053;-77
2022/03/10 09:51:09;;;;;;;19.38;11.60;;;19.90;51.40;;;;;;5053973;28;20052;-74
2022/03/10 09:53:35;;;;;;;19.80;11.77;;;19.70;51.40;;;;;;5054996;28;20078;-74
2022/03/10 09:56:02;;;;;;;19.02;10.85;;;19.80;51.20;;;;;;5060151;28;20093;-77
2022/03/10 09:58:29;;;;;;;24.95;11.68;;;;;;;;;;5061869;28;20037;-77
2022/03/10 10:01:03;;;;;;;24.63;11.82;;;;;;;;;;5063269;28;20017;-77
2022/03/10 10:03:29;;;;;;;20.67;11.20;;;;;;;;;;5061523;28;20496;-75
2022/03/10 10:05:59;;;;;;;19.25;12.18;;;;;;;;;;5061044;28;20052;-78
2022/03/10 10:08:24;;;;;;;25.23;12.07;;;20.20;51.00;;;;;;5056277;28;20052;-77
2022/03/10 10:10:56;;;;;;;20.80;10.93;;;23.20;45.00;;;;;;5059192;28;20029;-77
2022/03/10 10:13:40;;;;;;;18.85;10.73;;;23.30;43.80;;;;;;5057629;28;20021;-73
2022/03/10 10:16:12;;;;;;;27.33;12.07;;;23.00;43.60;;;;;;5055755;28;20032;-77
2022/03/10 10:18:39;;;;;;;21.50;12.07;;;23.20;44.10;;;;;;5055960;28;20409;-74
2022/03/10 10:21:06;;;;;;;27.25;12.63;;;23.50;42.50;;;;;;5055339;28;20032;-74
2022/03/10 10:23:34;;;;;;;24.85;11.45;;;23.50;41.80;;;;;;5056713;28;20374;-75
2022/03/10 10:26:11;;;;;;;22.88;11.88;;;23.50;42.20;;;;;;5055165;28;20114;-77
2022/03/10 10:28:37;;;;;;;22.60;13.02;;;23.40;41.70;;;;;;5055855;28;20021;-72
2022/03/10 10:31:05;;;;;;;20.55;12.32;;;23.30;41.20;;;;;;5057987;28;20025;-76
2022/03/10 10:33:33;;;;;;;20.83;12.52;;;23.00;41.40;;;;;;5061939;28;20025;-76
2022/03/10 10:36:18;;;;;;;24.20;12.85;;;22.80;41.40;;;;;;5059492;28;20048;-75
2022/03/10 10:38:44;;;;;;;;;;;23.30;41.00;;;;;;5061287;28;20029;-77
2022/03/10 10:41:18;;;;;;;21.35;12.93;;;23.60;40.30;;;;;;5059034;28;19912;-74
2022/03/10 10:43:49;;;;;;;27.75;13.27;;;23.50;39.20;;;;;;5064580;28;20082;-77
2022/03/10 10:46:25;;;;;;;23.85;12.60;;;23.30;39.80;;;;;;5063186;28;20021;-77
2022/03/10 10:48:50;;;;;;;24.05;12.30;;;22.90;39.80;;;;;;5062667;28;20025;-77
2022/03/10 10:51:46;;;;;;;21.42;12.05;;;23.00;40.20;;;;;;5061479;28;20027;-76
2022/03/10 10:54:21;;;;;;;21.17;12.88;;;23.20;39.70;;;;;;5061105;28;20053;-76
2022/03/10 10:57:01;;;;;;;22.70;11.93;;;23.30;39.80;;;;;;5062987;28;20025;-78
2022/03/10 10:59:31;;;;;;;23.27;12.15;;;23.60;39.60;;;;;;5064392;28;20040;-77
2022/03/10 11:02:19;;;;;;;22.15;12.07;;;23.60;38.80;;;;;;5059602;28;20048;-77
2022/03/10 11:04:50;;;;;;;24.23;12.57;;;23.20;39.20;;;;;;5061427;28;20105;-76
2022/03/10 11:07:16;;;;;;;19.90;11.82;;;23.20;39.50;;;;;;5060828;28;20083;-75
2022/03/10 11:09:43;;;;;;;24.88;12.52;;;23.20;39.50;;;;;;5059896;28;20025;-75
2022/03/10 11:12:13;;;;;;;25.20;12.23;;;22.60;39.70;;;;;;5057101;28;20017;-76
2022/03/10 11:14:38;;;;;;;20.35;12.20;;;23.10;40.40;;;;;;5068121;28;20044;-75
2022/03/10 11:17:05;;;;;;;18.85;12.07;;;23.40;39.10;;;;;;5057110;28;20021;-75
2022/03/10 11:19:33;;;;;;;22.85;12.90;;;23.40;38.90;;;;;;5058894;28;20025;-76
2022/03/10 11:22:08;;;;;;;18.00;11.45;;;23.30;39.00;;;;;;5074597;28;20025;-77
2022/03/10 11:24:49;;;;;;;;;;;23.60;38.90;;;;;;5070682;28;20029;-79
2022/03/10 11:27:23;;;;;;;24.08;12.13;;;24.30;38.10;;;;;;5062993;28;20578;-74
2022/03/10 11:29:52;;;;;;;17.92;12.25;;;23.90;38.20;;;;;;5054721;28;20029;-75
2022/03/10 11:32:18;;;;;;;21.20;11.88;;;23.50;39.00;;;;;;5055658;28;20060;-75
2022/03/10 11:34:51;;;;;;;23.13;13.70;;;23.40;38.90;;;;;;5056906;28;20036;-77
2022/03/10 11:37:42;;;;;;;21.23;12.18;;;23.90;38.80;;;;;;5056292;28;20025;-75
2022/03/10 11:40:09;;;;;;;30.88;12.88;;;24.50;37.70;;;;;;5058347;28;20059;-76
2022/03/10 11:42:36;;;;;;;19.17;11.35;;;24.40;37.90;;;;;;5055767;28;20033;-78
2022/03/10 11:45:16;;;;;;;20.13;11.52;;;24.70;37.50;;;;;;5060776;28;20036;-75
2022/03/10 11:47:42;;;;;;;20.15;12.35;;;25.10;37.40;;;;;;5055439;28;20025;-75
2022/03/10 11:50:23;;;;;;;19.40;11.90;;;25.40;36.80;;;;;;5058176;28;20084;-76
2022/03/10 11:52:57;;;;;;;24.80;11.95;;;24.90;36.50;;;;;;5058686;28;20066;-76
2022/03/10 11:55:24;;;;;;;20.48;12.80;;;24.60;36.80;;;;;;5055160;28;20017;-75
2022/03/10 11:57:55;;;;;;;26.70;12.27;;;24.30;37.50;;;;;;5056009;28;20029;-77
2022/03/10 12:00:51;;;;;;;20.88;12.30;;;24.50;37.50;;;;;;5054824;28;20033;-74
2022/03/10 12:03:34;;;;;;;22.48;11.60;;;24.80;36.60;;;;;;5050953;28;20037;-74
2022/03/10 12:06:05;;;;;;;18.70;12.25;;;24.70;36.70;;;;;;5054918;28;20032;-76
2022/03/10 12:08:36;;;;;;;19.02;12.20;;;24.10;36.90;;;;;;5056512;28;20079;-76
2022/03/10 12:11:12;;;;;;;18.98;11.48;;;24.10;37.20;;;;;;5062583;28;20029;-75
2022/03/10 12:13:40;;;;;;;23.50;12.32;;;23.90;37.30;;;;;;5066709;28;20032;-77
2022/03/10 12:16:29;;;;;;;20.52;11.60;;;24.30;37.10;;;;;;5073401;28;20092;-79
2022/03/10 12:18:56;;;;;;;23.50;12.23;;;25.00;37.00;;;;;;5079021;28;20047;-80
2022/03/10 12:21:24;;;;;;;15.63;10.90;;;25.80;36.00;;;;;;5078642;28;20033;-79
2022/03/10 12:24:04;;;;;;;21.52;12.55;;;26.20;35.50;;;;;;5071743;28;20036;-78
2022/03/10 12:26:35;;;;;;;28.70;11.90;;;26.60;34.20;;;;;;5067763;28;20043;-77
2022/03/10 12:29:12;;;;;;;14.93;10.45;;;26.70;33.70;;;;;;5070299;28;20032;-77
2022/03/10 12:31:38;;;;;;;16.45;10.02;;;26.20;33.30;;;;;;5074270;28;20012;-76
2022/03/10 12:34:09;;;;;;;18.50;10.80;;;26.50;33.40;;;;;;5078229;28;20047;-75
2022/03/10 12:36:51;;;;;;;19.83;11.27;;;26.60;32.90;;;;;;5068999;28;20449;-77
2022/03/10 12:39:22;;;;;;;18.83;10.23;;;26.60;32.60;;;;;;5059965;28;20032;-76
2022/03/10 12:42:04;;;;;;;21.77;11.48;;;26.00;32.90;;;;;;5055275;28;20067;-74
2022/03/10 12:44:30;;;;;;;15.52;11.50;;;25.60;33.30;;;;;;5054739;28;20021;-76